createdAt,value
2023-05-20T00:02:11.031Z,100.00
2023-05-20T00:04:37.872Z,100.00
2023-05-20T00:07:04.700Z,100.00
2023-05-20T00:09:31.326Z,100.00
2023-05-20T00:11:57.953Z,100.00
2023-05-20T00:14:24.884Z,100.00
2023-05-20T00:16:51.998Z,100.00
2023-05-20T00:19:18.994Z,100.00
2023-05-20T00:21:45.786Z,100.00
2023-05-20T00:24:12.552Z,100.00
2023-05-20T00:26:39.301Z,100.00
2023-05-20T00:29:06.008Z,100.00
2023-05-20T00:31:32.786Z,100.00
2023-05-20T00:33:59.459Z,100.00
2023-05-20T00:36:26.186Z,100.00
2023-05-20T00:38:52.975Z,100.00
2023-05-20T00:41:19.724Z,100.00
2023-05-20T00:43:46.615Z,100.00
2023-05-20T00:46:13.482Z,100.00
2023-05-20T00:48:42.080Z,100.00
2023-05-20T00:51:08.953Z,100.00
2023-05-20T00:53:36.542Z,100.00
2023-05-20T00:56:04.745Z,100.00
2023-05-20T00:58:32.209Z,100.00
2023-05-20T01:00:59.201Z,100.00
2023-05-20T01:03:26.382Z,100.00
2023-05-20T01:05:53.232Z,100.00
2023-05-20T01:08:20.173Z,100.00
2023-05-20T01:10:49.841Z,100.00
2023-05-20T01:13:20.886Z,100.00
2023-05-20T01:15:49.653Z,100.00
2023-05-20T01:18:20.745Z,100.00
2023-05-20T01:20:50.109Z,100.00
2023-05-20T01:23:17.393Z,100.00
2023-05-20T01:25:44.209Z,100.00
2023-05-20T01:28:18.259Z,100.00
2023-05-20T01:30:49.002Z,100.00
2023-05-20T01:33:17.729Z,100.00
2023-05-20T01:35:44.611Z,100.00
2023-05-20T01:38:14.868Z,100.00
2023-05-20T01:40:42.132Z,100.00
2023-05-20T01:43:09.453Z,100.00
2023-05-20T01:45:36.472Z,100.00
2023-05-20T01:48:03.542Z,100.00
2023-05-20T01:50:30.426Z,100.00
2023-05-20T01:52:57.213Z,100.00
2023-05-20T01:55:25.089Z,100.00
2023-05-20T01:57:51.877Z,100.00
2023-05-20T02:00:18.713Z,100.00
2023-05-20T02:02:45.752Z,100.00
2023-05-20T02:05:12.641Z,100.00
2023-05-20T02:07:39.382Z,100.00
2023-05-20T02:10:06.765Z,100.00
2023-05-20T02:12:33.600Z,100.00
2023-05-20T02:15:00.512Z,100.00
2023-05-20T02:17:27.357Z,100.00
2023-05-20T02:19:54.163Z,100.00
2023-05-20T02:22:20.970Z,100.00
2023-05-20T02:24:47.887Z,100.00
2023-05-20T02:27:14.612Z,100.00
2023-05-20T02:29:42.999Z,100.00
2023-05-20T02:32:09.998Z,100.00
2023-05-20T02:34:36.683Z,100.00
2023-05-20T02:37:03.781Z,100.00
2023-05-20T02:39:30.532Z,100.00
2023-05-20T02:41:57.314Z,100.00
2023-05-20T02:44:24.147Z,100.00
2023-05-20T02:46:50.964Z,100.00
2023-05-20T02:49:17.672Z,100.00
2023-05-20T02:51:44.392Z,100.00
2023-05-20T02:54:11.102Z,100.00
2023-05-20T02:56:37.839Z,100.00
2023-05-20T02:59:05.177Z,100.00
2023-05-20T03:01:33.948Z,100.00
2023-05-20T03:04:01.152Z,100.00
2023-05-20T03:06:30.079Z,100.00
2023-05-20T03:08:56.854Z,100.00
2023-05-20T03:11:23.567Z,100.00
2023-05-20T03:13:50.244Z,100.00
2023-05-20T03:16:17.148Z,100.00
2023-05-20T03:18:44.039Z,100.00
2023-05-20T03:21:10.820Z,100.00
2023-05-20T03:23:37.568Z,100.00
2023-05-20T03:26:04.256Z,100.00
2023-05-20T03:28:31.101Z,100.00
2023-05-20T03:30:57.807Z,100.00
2023-05-20T03:33:26.341Z,100.00
2023-05-20T03:35:53.340Z,100.00
2023-05-20T03:38:20.207Z,100.00
2023-05-20T03:40:46.895Z,100.00
2023-05-20T03:43:13.749Z,100.00
2023-05-20T03:45:41.128Z,100.00
2023-05-20T03:48:08.056Z,100.00
2023-05-20T03:50:34.932Z,100.00
2023-05-20T03:53:01.796Z,100.00
2023-05-20T03:55:28.475Z,100.00
2023-05-20T03:57:55.288Z,100.00
2023-05-20T04:00:22.105Z,100.00
2023-05-20T04:02:48.939Z,100.00
2023-05-20T04:05:15.897Z,100.00
2023-05-20T04:07:42.777Z,100.00
2023-05-20T04:10:10.204Z,100.00
2023-05-20T04:12:38.449Z,100.00
2023-05-20T04:15:05.824Z,100.00
2023-05-20T04:17:32.747Z,100.00
2023-05-20T04:20:00.145Z,100.00
2023-05-20T04:22:27.558Z,100.00
2023-05-20T04:24:54.568Z,100.00
2023-05-20T04:27:21.728Z,100.00
2023-05-20T04:29:48.817Z,100.00
2023-05-20T04:32:18.905Z,100.00
2023-05-20T04:34:48.875Z,100.00
2023-05-20T04:37:16.004Z,100.00
2023-05-20T04:39:43.787Z,100.00
2023-05-20T04:42:11.012Z,100.00
2023-05-20T04:44:38.077Z,100.00
2023-05-20T04:47:04.909Z,100.00
2023-05-20T04:49:31.642Z,100.00
2023-05-20T04:51:58.750Z,100.00
2023-05-20T04:54:25.641Z,100.00
2023-05-20T04:56:52.426Z,100.00
2023-05-20T04:59:19.103Z,100.00
2023-05-20T05:01:45.883Z,100.00
2023-05-20T05:04:12.755Z,100.00
2023-05-20T05:06:39.533Z,100.00
2023-05-20T05:09:06.263Z,100.00
2023-05-20T05:11:32.974Z,100.00
2023-05-20T05:14:00.046Z,100.00
2023-05-20T05:16:27.092Z,100.00
2023-05-20T05:18:53.905Z,100.00
2023-05-20T05:21:20.832Z,100.00
2023-05-20T05:23:47.715Z,100.00
2023-05-20T05:26:14.490Z,100.00
2023-05-20T05:28:44.641Z,100.00
2023-05-20T05:31:11.642Z,100.00
2023-05-20T05:33:38.448Z,100.00
2023-05-20T05:36:06.629Z,100.00
2023-05-20T05:38:33.358Z,100.00
2023-05-20T05:41:00.019Z,100.00
2023-05-20T05:43:26.831Z,100.00
2023-05-20T05:45:53.667Z,100.00
2023-05-20T05:48:21.128Z,100.00
2023-05-20T05:50:47.931Z,100.00
2023-05-20T05:53:14.767Z,100.00
2023-05-20T05:55:41.477Z,100.00
2023-05-20T05:58:08.278Z,100.00
2023-05-20T06:00:35.050Z,100.00
2023-05-20T06:03:01.807Z,100.00
2023-05-20T06:05:29.820Z,100.00
2023-05-20T06:07:56.840Z,100.00
2023-05-20T06:10:23.848Z,100.00
2023-05-20T06:12:50.651Z,100.00
2023-05-20T06:15:17.338Z,100.00
2023-05-20T06:17:44.395Z,100.00
2023-05-20T06:20:11.514Z,100.00
2023-05-20T06:22:38.253Z,100.00
2023-05-20T06:25:06.432Z,100.00
2023-05-20T06:27:33.479Z,100.00
2023-05-20T06:30:00.334Z,100.00
2023-05-20T06:32:27.766Z,100.00
2023-05-20T06:34:54.475Z,100.00
2023-05-20T06:37:24.511Z,100.00
2023-05-20T06:39:54.145Z,100.00
2023-05-20T06:42:21.581Z,100.00
2023-05-20T06:44:48.470Z,100.00
2023-05-20T06:47:16.788Z,100.00
2023-05-20T06:49:47.178Z,100.00
2023-05-20T06:52:14.609Z,100.00
2023-05-20T06:54:41.870Z,100.00
2023-05-20T06:57:09.320Z,100.00
2023-05-20T06:59:37.048Z,100.00
2023-05-20T07:02:04.147Z,100.00
2023-05-20T07:04:31.059Z,100.00
2023-05-20T07:06:57.861Z,100.00
2023-05-20T07:09:24.715Z,100.00
2023-05-20T07:11:51.646Z,100.00
2023-05-20T07:14:18.417Z,100.00
2023-05-20T07:16:47.448Z,100.00
2023-05-20T07:19:14.256Z,100.00
2023-05-20T07:21:41.375Z,100.00
2023-05-20T07:24:08.223Z,100.00
2023-05-20T07:26:36.577Z,100.00
2023-05-20T07:29:04.462Z,100.00
2023-05-20T07:31:31.651Z,100.00
2023-05-20T07:33:58.567Z,100.00
2023-05-20T07:36:27.402Z,100.00
2023-05-20T07:39:03.232Z,100.00
2023-05-20T07:41:31.192Z,100.00
2023-05-20T07:43:57.899Z,100.00
2023-05-20T07:46:24.639Z,100.00
2023-05-20T07:48:51.459Z,100.00
2023-05-20T07:51:18.998Z,100.00
2023-05-20T07:53:45.751Z,100.00
2023-05-20T07:56:13.251Z,100.00
2023-05-20T07:58:41.804Z,100.00
2023-05-20T08:01:09.526Z,100.00
2023-05-20T08:03:36.824Z,100.00
2023-05-20T08:06:03.899Z,100.00
2023-05-20T08:08:33.780Z,100.00
2023-05-20T08:11:01.806Z,100.00
2023-05-20T08:13:28.517Z,100.00
2023-05-20T08:15:55.356Z,100.00
2023-05-20T08:18:23.138Z,100.00
2023-05-20T08:20:50.148Z,100.00
2023-05-20T08:23:17.206Z,100.00
2023-05-20T08:25:46.863Z,100.00
2023-05-20T08:28:13.634Z,100.00
2023-05-20T08:30:40.471Z,100.00
2023-05-20T08:33:07.603Z,100.00
2023-05-20T08:35:34.633Z,100.00
2023-05-20T08:38:02.248Z,100.00
2023-05-20T08:40:28.985Z,100.00
2023-05-20T08:42:56.169Z,100.00
2023-05-20T08:45:27.976Z,100.00
2023-05-20T08:47:55.266Z,100.00
2023-05-20T08:50:22.329Z,100.00
2023-05-20T08:52:49.408Z,100.00
2023-05-20T08:55:24.979Z,100.00
2023-05-20T08:57:52.019Z,100.00
2023-05-20T09:00:20.478Z,100.00
2023-05-20T09:02:47.802Z,100.00
2023-05-20T09:05:14.810Z,100.00
2023-05-20T09:07:43.394Z,100.00
2023-05-20T09:10:11.417Z,100.00
2023-05-20T09:12:41.140Z,97.96
2023-05-20T09:15:08.875Z,100.00
2023-05-20T09:17:37.254Z,89.22
2023-05-20T09:20:11.305Z,94.51
2023-05-20T09:22:39.415Z,98.83
2023-05-20T09:25:06.780Z,100.00
2023-05-20T09:27:34.102Z,100.00
2023-05-20T09:30:01.004Z,99.25
2023-05-20T09:32:29.117Z,96.66
2023-05-20T09:34:55.950Z,97.45
2023-05-20T09:37:23.885Z,98.79
2023-05-20T09:40:00.967Z,100.00
2023-05-20T09:42:51.820Z,100.00
2023-05-20T09:45:18.802Z,100.00
2023-05-20T09:47:46.302Z,100.00
2023-05-20T09:50:13.184Z,97.68
2023-05-20T09:52:40.212Z,97.55
2023-05-20T09:55:07.631Z,93.99
2023-05-20T09:57:34.954Z,93.70
2023-05-20T10:00:02.519Z,93.03
2023-05-20T10:02:29.741Z,92.46
2023-05-20T10:04:57.143Z,86.82
2023-05-20T10:07:52.531Z,89.20
2023-05-20T10:10:50.541Z,89.66
2023-05-20T10:13:21.920Z,89.65
2023-05-20T10:15:57.592Z,84.01
2023-05-20T10:18:52.200Z,85.55
2023-05-20T10:21:24.655Z,83.80
2023-05-20T10:23:52.340Z,82.73
2023-05-20T10:26:19.456Z,81.92
2023-05-20T10:28:46.639Z,75.18
2023-05-20T10:31:23.273Z,79.43
2023-05-20T10:33:53.297Z,81.69
2023-05-20T10:36:27.873Z,82.59
2023-05-20T10:38:59.321Z,84.51
2023-05-20T10:41:29.591Z,85.42
2023-05-20T10:44:03.455Z,82.56
2023-05-20T10:46:48.138Z,80.47
2023-05-20T10:49:23.309Z,84.41
2023-05-20T10:51:52.321Z,81.18
2023-05-20T10:54:19.132Z,87.33
2023-05-20T10:56:53.780Z,77.27
2023-05-20T10:59:22.357Z,73.14
2023-05-20T11:01:49.463Z,74.50
2023-05-20T11:04:17.451Z,75.34
2023-05-20T11:06:54.343Z,78.80
2023-05-20T11:09:21.998Z,82.88
2023-05-20T11:11:53.586Z,71.60
2023-05-20T11:14:21.809Z,63.92
2023-05-20T11:16:53.536Z,69.74
2023-05-20T11:19:20.972Z,69.71
2023-05-20T11:21:48.760Z,80.08
2023-05-20T11:24:23.649Z,73.72
2023-05-20T11:26:50.272Z,74.06
2023-05-20T11:29:17.901Z,73.89
2023-05-20T11:31:44.732Z,75.42
2023-05-20T11:34:12.337Z,72.98
2023-05-20T11:36:43.333Z,72.97
2023-05-20T11:39:11.668Z,70.69
2023-05-20T11:41:39.227Z,72.11
2023-05-20T11:44:10.929Z,70.86
2023-05-20T11:46:45.941Z,68.02
2023-05-20T11:49:16.669Z,65.85
2023-05-20T11:51:44.072Z,70.86
2023-05-20T11:54:11.370Z,72.97
2023-05-20T11:56:39.062Z,69.85
2023-05-20T11:59:06.744Z,70.32
2023-05-20T12:01:41.126Z,72.53
2023-05-20T12:04:08.851Z,72.26
2023-05-20T12:06:39.850Z,68.51
2023-05-20T12:09:07.592Z,69.10
2023-05-20T12:11:40.845Z,69.09
2023-05-20T12:14:08.417Z,68.98
2023-05-20T12:16:35.904Z,68.50
2023-05-20T12:19:03.253Z,66.26
2023-05-20T12:21:30.369Z,68.38
2023-05-20T12:23:58.705Z,69.71
2023-05-20T12:26:26.929Z,67.08
2023-05-20T12:28:54.482Z,65.20
2023-05-20T12:31:21.403Z,65.07
2023-05-20T12:33:48.344Z,63.02
2023-05-20T12:36:15.544Z,63.29
2023-05-20T12:38:42.239Z,63.21
2023-05-20T12:41:08.945Z,63.13
2023-05-20T12:43:37.286Z,63.00
2023-05-20T12:46:04.402Z,63.30
2023-05-20T12:48:31.158Z,62.64
2023-05-20T12:50:57.953Z,60.85
2023-05-20T12:53:24.754Z,61.13
2023-05-20T12:55:51.526Z,60.13
2023-05-20T12:58:18.166Z,58.91
2023-05-20T13:00:45.046Z,60.28
2023-05-20T13:03:11.942Z,61.14
2023-05-20T13:05:38.755Z,59.38
2023-05-20T13:08:05.717Z,60.06
2023-05-20T13:10:33.561Z,60.75
2023-05-20T13:13:00.495Z,58.23
2023-05-20T13:15:27.303Z,55.10
2023-05-20T13:17:54.606Z,54.18
2023-05-20T13:20:21.736Z,53.80
2023-05-20T13:22:50.398Z,53.04
2023-05-20T13:25:17.436Z,53.08
2023-05-20T13:27:44.432Z,53.89
2023-05-20T13:30:11.406Z,52.36
2023-05-20T13:32:38.212Z,51.58
2023-05-20T13:35:05.422Z,50.92
2023-05-20T13:37:32.094Z,51.12
2023-05-20T13:39:59.030Z,51.23
2023-05-20T13:42:25.743Z,51.42
2023-05-20T13:44:52.438Z,49.56
2023-05-20T13:47:19.354Z,50.57
2023-05-20T13:49:46.129Z,51.36
2023-05-20T13:52:12.867Z,50.31
2023-05-20T13:54:40.162Z,50.79
2023-05-20T13:57:08.148Z,52.87
2023-05-20T13:59:35.382Z,53.26
2023-05-20T14:02:03.254Z,53.75
2023-05-20T14:04:31.488Z,53.67
2023-05-20T14:06:59.317Z,53.73
2023-05-20T14:09:26.529Z,49.72
2023-05-20T14:11:53.462Z,49.20
2023-05-20T14:14:20.181Z,49.39
2023-05-20T14:16:47.369Z,50.91
2023-05-20T14:19:14.251Z,50.98
2023-05-20T14:21:40.965Z,50.97
2023-05-20T14:24:07.709Z,49.83
2023-05-20T14:26:34.797Z,48.98
2023-05-20T14:29:01.656Z,48.56
2023-05-20T14:31:28.923Z,47.63
2023-05-20T14:33:56.293Z,47.91
2023-05-20T14:36:23.156Z,46.89
2023-05-20T14:38:52.097Z,47.10
2023-05-20T14:41:20.101Z,47.96
2023-05-20T14:43:46.840Z,47.01
2023-05-20T14:46:13.576Z,46.15
2023-05-20T14:48:41.106Z,46.00
2023-05-20T14:51:07.917Z,44.55
2023-05-20T14:53:34.619Z,44.23
2023-05-20T14:56:01.299Z,44.13
2023-05-20T14:58:28.331Z,43.53
2023-05-20T15:00:55.231Z,43.09
2023-05-20T15:03:23.599Z,43.34
2023-05-20T15:05:50.545Z,42.75
2023-05-20T15:08:17.409Z,42.66
2023-05-20T15:10:44.200Z,41.42
2023-05-20T15:13:11.003Z,43.23
2023-05-20T15:15:37.914Z,42.08
2023-05-20T15:18:04.681Z,43.05
2023-05-20T15:20:31.413Z,41.81
2023-05-20T15:22:59.235Z,41.60
2023-05-20T15:25:27.701Z,41.44
2023-05-20T15:27:54.521Z,41.61
2023-05-20T15:30:22.913Z,40.66
2023-05-20T15:32:50.159Z,41.10
2023-05-20T15:35:17.298Z,39.64
2023-05-20T15:37:43.985Z,41.37
2023-05-20T15:40:11.385Z,41.29
2023-05-20T15:42:38.501Z,39.77
2023-05-20T15:45:05.611Z,40.67
2023-05-20T15:47:32.387Z,40.89
2023-05-20T15:49:59.290Z,42.28
2023-05-20T15:52:26.195Z,42.10
2023-05-20T15:54:53.125Z,41.72
2023-05-20T15:57:19.962Z,42.56
2023-05-20T15:59:46.903Z,42.79
2023-05-20T16:02:13.673Z,42.28
2023-05-20T16:04:40.636Z,42.02
2023-05-20T16:07:07.575Z,40.70
2023-05-20T16:09:34.319Z,40.65
2023-05-20T16:12:01.418Z,41.31
2023-05-20T16:14:28.104Z,41.42
2023-05-20T16:16:54.815Z,42.60
2023-05-20T16:19:21.691Z,43.59
2023-05-20T16:21:48.433Z,44.47
2023-05-20T16:24:15.777Z,43.61
2023-05-20T16:26:42.556Z,43.24
2023-05-20T16:29:09.259Z,43.94
2023-05-20T16:31:36.189Z,44.33
2023-05-20T16:34:03.956Z,44.78
2023-05-20T16:36:31.183Z,44.74
2023-05-20T16:38:59.131Z,45.71
2023-05-20T16:41:26.399Z,45.65
2023-05-20T16:43:53.162Z,44.75
2023-05-20T16:46:20.028Z,44.00
2023-05-20T16:48:47.046Z,45.84
2023-05-20T16:51:13.722Z,47.01
2023-05-20T16:53:40.768Z,47.16
2023-05-20T16:56:08.278Z,48.39
2023-05-20T16:58:34.979Z,48.72
2023-05-20T17:01:02.245Z,49.02
2023-05-20T17:03:28.979Z,48.34
2023-05-20T17:05:56.123Z,48.87
2023-05-20T17:08:23.057Z,49.84
2023-05-20T17:10:51.878Z,49.42
2023-05-20T17:13:21.246Z,47.94
2023-05-20T17:15:48.093Z,48.43
2023-05-20T17:18:15.047Z,50.26
2023-05-20T17:20:41.753Z,49.32
2023-05-20T17:23:08.646Z,49.20
2023-05-20T17:25:35.688Z,50.46
2023-05-20T17:28:02.458Z,50.78
2023-05-20T17:30:29.195Z,51.50
2023-05-20T17:32:57.515Z,51.82
2023-05-20T17:35:28.266Z,52.28
2023-05-20T17:37:55.342Z,52.52
2023-05-20T17:40:22.121Z,53.33
2023-05-20T17:42:56.172Z,52.97
2023-05-20T17:45:23.125Z,52.64
2023-05-20T17:48:01.268Z,54.01
2023-05-20T17:50:28.101Z,53.92
2023-05-20T17:52:54.874Z,54.60
2023-05-20T17:55:22.164Z,55.66
2023-05-20T17:57:49.028Z,55.60
2023-05-20T18:00:18.273Z,56.65
2023-05-20T18:02:48.635Z,56.82
2023-05-20T18:05:17.040Z,57.57
2023-05-20T18:07:44.161Z,56.80
2023-05-20T18:10:11.006Z,57.80
2023-05-20T18:12:37.749Z,57.63
2023-05-20T18:15:06.431Z,58.86
2023-05-20T18:17:33.245Z,59.49
2023-05-20T18:20:00.151Z,59.66
2023-05-20T18:22:27.186Z,60.29
2023-05-20T18:24:54.030Z,61.11
2023-05-20T18:27:21.070Z,62.48
2023-05-20T18:29:49.468Z,62.96
2023-05-20T18:32:16.508Z,63.28
2023-05-20T18:34:43.281Z,64.41
2023-05-20T18:37:09.934Z,65.74
2023-05-20T18:39:36.859Z,67.18
2023-05-20T18:42:03.571Z,67.04
2023-05-20T18:44:30.279Z,67.63
2023-05-20T18:46:56.957Z,68.86
2023-05-20T18:49:23.691Z,69.40
2023-05-20T18:51:50.581Z,70.23
2023-05-20T18:54:17.458Z,72.02
2023-05-20T18:56:44.308Z,72.96
2023-05-20T18:59:11.524Z,73.79
2023-05-20T19:01:38.284Z,73.74
2023-05-20T19:04:05.307Z,75.01
2023-05-20T19:06:35.269Z,76.17
2023-05-20T19:09:02.204Z,76.93
2023-05-20T19:11:29.007Z,77.60
2023-05-20T19:13:56.345Z,78.01
2023-05-20T19:16:23.250Z,79.01
2023-05-20T19:18:50.098Z,80.30
2023-05-20T19:21:16.872Z,81.48
2023-05-20T19:23:43.677Z,83.13
2023-05-20T19:26:10.632Z,83.60
2023-05-20T19:28:37.312Z,82.78
2023-05-20T19:31:04.217Z,84.79
2023-05-20T19:33:30.955Z,86.11
2023-05-20T19:36:00.841Z,87.25
2023-05-20T19:38:27.560Z,88.94
2023-05-20T19:40:54.294Z,89.75
2023-05-20T19:43:21.149Z,89.82
2023-05-20T19:45:47.840Z,90.82
2023-05-20T19:48:14.618Z,90.44
2023-05-20T19:50:41.876Z,91.88
2023-05-20T19:53:08.647Z,92.22
2023-05-20T19:55:37.363Z,93.55
2023-05-20T19:58:04.430Z,93.37
2023-05-20T20:00:31.292Z,94.85
2023-05-20T20:02:59.595Z,96.54
2023-05-20T20:05:26.625Z,97.39
2023-05-20T20:07:53.516Z,99.30
2023-05-20T20:10:20.480Z,100.00
2023-05-20T20:12:47.286Z,100.00
2023-05-20T20:15:14.405Z,100.00
2023-05-20T20:17:45.408Z,100.00
2023-05-20T20:20:15.377Z,100.00
2023-05-20T20:22:42.205Z,100.00
2023-05-20T20:25:09.379Z,100.00
2023-05-20T20:27:36.153Z,100.00
2023-05-20T20:30:02.995Z,100.00
2023-05-20T20:32:29.834Z,100.00
2023-05-20T20:34:58.302Z,100.00
2023-05-20T20:37:26.932Z,100.00
2023-05-20T20:39:54.770Z,100.00
2023-05-20T20:42:24.726Z,100.00
2023-05-20T20:44:52.743Z,100.00
2023-05-20T20:47:19.671Z,100.00
2023-05-20T20:49:46.487Z,100.00
2023-05-20T20:52:13.380Z,100.00
2023-05-20T20:54:42.797Z,100.00
2023-05-20T20:57:10.219Z,100.00
2023-05-20T20:59:36.985Z,100.00
2023-05-20T21:02:04.658Z,100.00
2023-05-20T21:04:31.753Z,100.00
2023-05-20T21:07:02.126Z,100.00
2023-05-20T21:09:29.209Z,100.00
2023-05-20T21:11:57.359Z,100.00
2023-05-20T21:14:24.350Z,100.00
2023-05-20T21:16:51.286Z,100.00
2023-05-20T21:19:18.324Z,100.00
2023-05-20T21:21:55.589Z,100.00
2023-05-20T21:24:33.809Z,100.00
2023-05-20T21:27:00.634Z,100.00
2023-05-20T21:29:27.554Z,100.00
2023-05-20T21:31:55.206Z,100.00
2023-05-20T21:34:22.595Z,100.00
2023-05-20T21:36:49.514Z,100.00
2023-05-20T21:39:16.349Z,100.00
2023-05-20T21:41:43.075Z,100.00
2023-05-20T21:44:09.824Z,100.00
2023-05-20T21:46:36.713Z,100.00
2023-05-20T21:49:03.664Z,100.00
2023-05-20T21:51:31.594Z,100.00
2023-05-20T21:53:58.579Z,100.00
2023-05-20T21:56:26.516Z,100.00
2023-05-20T21:58:53.332Z,100.00
2023-05-20T22:01:20.152Z,100.00
2023-05-20T22:04:00.634Z,100.00
2023-05-20T22:06:34.151Z,100.00
2023-05-20T22:09:01.696Z,100.00
2023-05-20T22:11:28.916Z,100.00
2023-05-20T22:13:55.646Z,100.00
2023-05-20T22:16:22.360Z,100.00
2023-05-20T22:18:49.902Z,100.00
2023-05-20T22:21:16.743Z,100.00
2023-05-20T22:23:43.604Z,100.00
2023-05-20T22:26:10.306Z,100.00
2023-05-20T22:28:37.351Z,100.00
2023-05-20T22:31:04.294Z,100.00
2023-05-20T22:33:31.079Z,100.00
2023-05-20T22:35:58.301Z,100.00
2023-05-20T22:38:25.038Z,100.00
2023-05-20T22:40:51.752Z,100.00
2023-05-20T22:43:21.036Z,100.00
2023-05-20T22:45:47.967Z,100.00
2023-05-20T22:48:15.413Z,100.00
2023-05-20T22:50:42.485Z,100.00
2023-05-20T22:53:09.245Z,100.00
2023-05-20T22:55:38.819Z,100.00
2023-05-20T22:58:05.542Z,100.00
2023-05-20T23:00:32.253Z,100.00
2023-05-20T23:02:59.040Z,100.00
2023-05-20T23:05:25.994Z,100.00
2023-05-20T23:07:53.898Z,100.00
2023-05-20T23:10:20.977Z,100.00
2023-05-20T23:12:47.788Z,100.00
2023-05-20T23:15:14.593Z,100.00
2023-05-20T23:17:41.522Z,100.00
2023-05-20T23:20:11.272Z,100.00
2023-05-20T23:22:38.461Z,100.00
2023-05-20T23:25:05.879Z,100.00
2023-05-20T23:27:33.039Z,100.00
2023-05-20T23:29:59.991Z,100.00
2023-05-20T23:32:27.290Z,100.00
2023-05-20T23:34:55.331Z,100.00
2023-05-20T23:37:22.794Z,100.00
2023-05-20T23:39:49.538Z,100.00
2023-05-20T23:42:16.364Z,100.00
2023-05-20T23:44:43.040Z,100.00
2023-05-20T23:47:09.784Z,100.00
2023-05-20T23:49:37.307Z,100.00
2023-05-20T23:52:04.228Z,100.00
2023-05-20T23:54:35.075Z,100.00
2023-05-20T23:57:01.730Z,100.00
2023-05-20T23:59:28.396Z,100.00
